Terminal Aerodrome Forecast
Issued by NWS

Home | Current Version | Previous Version | Text Only | Print | Product List | Glossary On
Versions: 1 2 3 4 5 6 7 8 9 10 11 12
000
FTUS45 KABQ 172322
TAFLVS
TAF
KLVS 172322Z 1800/1824 19013KT P6SM VCSH SCT090 SCT150
     FM180100 19009KT P6SM BKN120
     FM180900 VRB05KT P6SM FEW110
     FM181700 17010KT P6SM SCT110=

USA.gov is the U.S. government's official web portal to all federal, state and local government web resources and services.